Terminal Aerodrome Forecast
Issued by NWS

Current Version | Previous Version | Text Only | Print | Product List | Glossary Off
Versions: 1 2 3 4 5 6 7 8 9 10 11 12 13 14 15 16 17 18 19 20 21 22 23 24

525
FTUS41 KILN 192337
TAFLUK
TAF
KLUK 192337Z 2000/2024 11005KT P6SM -RA OVC050
     FM200300 12004KT 4SM -RA BR OVC028
      TEMPO 2004/2008 2SM RA BR OVC018
     FM201000 15005KT 3SM BR VCSH OVC012
     FM201300 18005KT 4SM BR OVC008
     FM201600 21005KT 5SM BR BKN011
     FM202100 18003KT P6SM BKN025=

USA.gov is the U.S. government's official web portal to all federal, state and local government web resources and services.